createdAt,value
2018-12-29T00:01:32.716Z,3.40
2018-12-29T00:11:37.869Z,4.20
2018-12-29T00:16:45.328Z,7.90
2018-12-29T00:21:52.460Z,3.93
2018-12-29T00:26:59.650Z,4.17
2018-12-29T00:32:06.964Z,3.90
2018-12-29T00:37:14.042Z,3.40
2018-12-29T00:42:21.382Z,3.43
2018-12-29T00:47:28.540Z,3.23
2018-12-29T00:52:35.604Z,3.10
2018-12-29T00:57:42.776Z,2.90
2018-12-29T01:02:53.733Z,9.63
2018-12-29T01:08:00.903Z,6.07
2018-12-29T01:13:08.159Z,4.43
2018-12-29T01:18:15.311Z,4.97
2018-12-29T01:23:22.333Z,4.03
2018-12-29T01:28:29.504Z,3.10
2018-12-29T01:33:36.582Z,4.30
2018-12-29T01:38:43.746Z,3.40
2018-12-29T01:43:50.836Z,3.50
2018-12-29T01:48:58.031Z,3.30
2018-12-29T01:54:05.831Z,7.07
2018-12-29T01:59:13.237Z,4.50
2018-12-29T02:04:20.306Z,4.53
2018-12-29T02:09:27.590Z,4.17
2018-12-29T02:14:34.758Z,4.83
2018-12-29T02:19:41.952Z,3.57
2018-12-29T02:24:49.122Z,3.70
2018-12-29T02:29:56.283Z,3.00
2018-12-29T02:35:03.454Z,3.50
2018-12-29T02:40:11.540Z,3.20
2018-12-29T02:45:18.727Z,3.33
2018-12-29T02:50:25.862Z,3.80
2018-12-29T02:55:33.022Z,3.17
2018-12-29T03:00:40.117Z,2.93
2018-12-29T03:05:47.268Z,3.63
2018-12-29T03:10:54.348Z,3.20
2018-12-29T03:16:01.407Z,4.63
2018-12-29T03:21:08.650Z,3.17
2018-12-29T03:26:15.705Z,2.90
2018-12-29T03:31:22.893Z,3.20
2018-12-29T03:36:29.896Z,2.80
2018-12-29T03:41:37.133Z,3.53
2018-12-29T03:46:44.309Z,3.73
2018-12-29T03:51:51.380Z,4.37
2018-12-29T03:56:58.545Z,4.07
2018-12-29T04:02:06.285Z,2.97
2018-12-29T04:07:13.373Z,2.70
2018-12-29T04:12:26.404Z,2.90
2018-12-29T04:17:33.579Z,3.10
2018-12-29T04:22:40.853Z,2.73
2018-12-29T04:27:48.015Z,2.27
2018-12-29T04:32:55.121Z,2.75
2018-12-29T04:38:02.182Z,2.63
2018-12-29T04:43:09.236Z,4.43
2018-12-29T04:48:16.299Z,5.20
2018-12-29T04:53:23.545Z,8.38
2018-12-29T04:58:30.822Z,5.33
2018-12-29T05:03:37.911Z,2.13
2018-12-29T05:08:45.288Z,1.80
2018-12-29T05:13:52.444Z,2.13
2018-12-29T05:18:59.834Z,2.00
2018-12-29T05:24:06.959Z,1.50
2018-12-29T05:29:14.106Z,2.43
2018-12-29T05:34:21.607Z,2.17
2018-12-29T05:39:32.979Z,2.70
2018-12-29T05:44:40.207Z,4.90
2018-12-29T05:49:47.290Z,2.30
2018-12-29T05:54:54.449Z,2.40
2018-12-29T06:00:01.937Z,2.37
2018-12-29T06:05:08.995Z,2.97
2018-12-29T06:10:16.169Z,2.90
2018-12-29T06:15:24.462Z,2.90
2018-12-29T06:20:31.626Z,5.80
2018-12-29T06:25:38.691Z,4.70
2018-12-29T06:30:47.622Z,5.60
2018-12-29T06:35:54.700Z,7.67
2018-12-29T06:41:02.061Z,10.63
2018-12-29T06:46:09.344Z,10.87
2018-12-29T06:51:16.419Z,7.37
2018-12-29T06:56:23.608Z,10.38
2018-12-29T07:01:30.690Z,5.47
2018-12-29T07:06:37.935Z,3.90
2018-12-29T07:11:45.098Z,3.63
2018-12-29T07:16:52.165Z,3.40
2018-12-29T07:21:59.435Z,5.03
2018-12-29T07:27:06.500Z,7.03
2018-12-29T07:32:13.661Z,6.75
2018-12-29T07:37:20.923Z,6.23
2018-12-29T07:42:31.869Z,4.53
2018-12-29T07:47:39.326Z,6.53
2018-12-29T07:52:46.734Z,5.67
2018-12-29T07:57:53.987Z,11.20
2018-12-29T08:03:01.072Z,6.27
2018-12-29T08:08:08.261Z,6.23
2018-12-29T08:13:15.374Z,4.47
2018-12-29T08:18:23.053Z,8.70
2018-12-29T08:23:30.107Z,7.77
2018-12-29T08:28:38.435Z,4.23
2018-12-29T08:33:45.550Z,5.37
2018-12-29T08:38:52.629Z,4.37
2018-12-29T08:43:59.722Z,10.20
2018-12-29T08:49:06.813Z,11.33
2018-12-29T08:54:13.883Z,9.50
2018-12-29T08:59:21.160Z,5.57
2018-12-29T09:04:28.783Z,5.40
2018-12-29T09:09:36.311Z,11.67
2018-12-29T09:14:43.658Z,9.60
2018-12-29T09:19:50.755Z,8.20
2018-12-29T09:24:57.923Z,7.00
2018-12-29T09:30:06.480Z,5.87
2018-12-29T09:35:13.651Z,7.43
2018-12-29T09:40:21.827Z,5.67
2018-12-29T09:45:28.865Z,6.50
2018-12-29T09:50:39.416Z,7.07
2018-12-29T09:55:47.714Z,7.53
2018-12-29T10:00:54.847Z,7.35
2018-12-29T10:06:01.987Z,12.00
2018-12-29T10:11:09.670Z,6.83
2018-12-29T10:16:16.933Z,7.08
2018-12-29T10:21:24.311Z,8.63
2018-12-29T10:26:31.590Z,10.63
2018-12-29T10:31:38.675Z,7.93
2018-12-29T10:36:45.756Z,15.97
2018-12-29T10:41:53.923Z,8.37
2018-12-29T10:47:01.148Z,9.57
2018-12-29T10:52:08.336Z,7.87
2018-12-29T10:57:15.512Z,14.40
2018-12-29T11:02:22.578Z,14.30
2018-12-29T11:07:29.715Z,16.10
2018-12-29T11:12:37.203Z,23.87
2018-12-29T11:17:44.546Z,5.87
2018-12-29T11:22:52.054Z,4.90
2018-12-29T11:27:59.248Z,5.67
2018-12-29T11:33:06.528Z,4.50
2018-12-29T11:38:13.745Z,21.48
2018-12-29T11:43:21.629Z,12.10
2018-12-29T11:48:28.862Z,8.40
2018-12-29T11:53:40.240Z,19.77
2018-12-29T11:58:47.416Z,17.17
2018-12-29T12:03:54.621Z,7.73
2018-12-29T12:09:01.992Z,11.30
2018-12-29T12:14:10.862Z,9.27
2018-12-29T12:19:18.023Z,5.10
2018-12-29T12:24:25.196Z,6.53
2018-12-29T12:29:32.382Z,8.20
2018-12-29T12:34:39.587Z,6.83
2018-12-29T12:39:47.094Z,4.47
2018-12-29T12:44:54.266Z,7.43
2018-12-29T12:50:01.430Z,5.00
2018-12-29T12:55:09.078Z,4.87
2018-12-29T13:00:17.090Z,4.53
2018-12-29T13:05:24.259Z,6.47
2018-12-29T13:10:33.457Z,4.90
2018-12-29T13:15:40.478Z,7.00
2018-12-29T13:20:47.563Z,7.20
2018-12-29T13:25:54.853Z,7.27
2018-12-29T13:31:01.928Z,6.13
2018-12-29T13:36:09.425Z,3.97
2018-12-29T13:41:16.800Z,7.90
2018-12-29T13:46:23.990Z,7.78
2018-12-29T13:51:31.370Z,8.23
2018-12-29T13:56:39.760Z,13.33
2018-12-29T14:01:47.263Z,12.33
2018-12-29T14:06:55.677Z,13.10
2018-12-29T14:12:03.270Z,30.63
2018-12-29T14:17:10.653Z,7.17
2018-12-29T14:22:18.027Z,12.33
2018-12-29T14:27:26.899Z,16.20
2018-12-29T14:32:34.205Z,16.50
2018-12-29T14:37:41.312Z,13.57
2018-12-29T14:42:48.705Z,9.20
2018-12-29T14:47:56.085Z,14.03
2018-12-29T14:53:03.670Z,9.70
2018-12-29T14:58:11.237Z,29.05
2018-12-29T15:03:18.673Z,6.50
2018-12-29T15:08:26.935Z,7.07
2018-12-29T15:13:34.425Z,11.13
2018-12-29T15:18:44.207Z,6.50
2018-12-29T15:23:50.434Z,28.70
2018-12-29T15:28:57.845Z,15.87
2018-12-29T15:34:05.256Z,13.30
2018-12-29T15:39:13.163Z,25.32
2018-12-29T15:44:20.309Z,17.73
2018-12-29T15:49:27.678Z,57.07
2018-12-29T15:54:34.863Z,42.40
2018-12-29T15:59:41.943Z,21.33
2018-12-29T16:04:50.007Z,16.87
2018-12-29T16:09:58.198Z,43.10
2018-12-29T16:15:06.227Z,23.70
2018-12-29T16:20:15.093Z,113.23
2018-12-29T16:25:22.699Z,197.27
2018-12-29T16:30:31.261Z,89.97
2018-12-29T16:35:38.577Z,22.93
2018-12-29T16:40:46.553Z,21.57
2018-12-29T16:45:54.861Z,62.30
2018-12-29T16:51:02.113Z,189.60
2018-12-29T16:56:09.857Z,35.87
2018-12-29T17:01:16.981Z,22.30
2018-12-29T17:06:24.541Z,25.80
2018-12-29T17:11:32.708Z,23.87
2018-12-29T17:16:39.946Z,9.30
2018-12-29T17:21:47.098Z,27.13
2018-12-29T17:26:54.283Z,18.03
2018-12-29T17:32:01.925Z,29.73
2018-12-29T17:37:09.098Z,61.87
2018-12-29T17:42:16.915Z,40.50
2018-12-29T17:47:24.168Z,60.23
2018-12-29T17:52:32.481Z,33.47
2018-12-29T17:57:40.951Z,48.20
2018-12-29T18:02:49.302Z,99.70
2018-12-29T18:07:56.633Z,35.87
2018-12-29T18:13:04.834Z,57.57
2018-12-29T18:18:11.887Z,24.18
2018-12-29T18:23:20.260Z,25.97
2018-12-29T18:28:28.468Z,15.90
2018-12-29T18:33:37.565Z,13.57
2018-12-29T18:38:44.970Z,23.87
2018-12-29T18:43:53.053Z,19.50
2018-12-29T18:49:00.307Z,9.40
2018-12-29T18:54:07.801Z,24.67
2018-12-29T18:59:15.036Z,21.40
2018-12-29T19:04:22.106Z,11.47
2018-12-29T19:09:29.317Z,12.97
2018-12-29T19:14:37.068Z,18.57
2018-12-29T19:19:46.429Z,9.20
2018-12-29T19:24:53.126Z,12.60
2018-12-29T19:30:02.791Z,10.10
2018-12-29T19:35:11.051Z,12.53
2018-12-29T19:40:19.422Z,10.10
2018-12-29T19:45:28.301Z,12.13
2018-12-29T19:50:36.119Z,7.27
2018-12-29T19:55:44.916Z,12.27
2018-12-29T20:00:52.324Z,6.40
2018-12-29T20:06:00.763Z,9.60
2018-12-29T20:11:08.538Z,7.77
2018-12-29T20:16:16.611Z,8.00
2018-12-29T20:21:23.997Z,22.90
2018-12-29T20:26:32.072Z,15.20
2018-12-29T20:31:39.456Z,46.87
2018-12-29T20:36:51.470Z,16.10
2018-12-29T20:42:00.264Z,20.63
2018-12-29T20:47:07.453Z,28.43
2018-12-29T20:52:15.252Z,17.45
2018-12-29T20:57:22.737Z,17.47
2018-12-29T21:02:30.101Z,19.43
2018-12-29T21:07:37.477Z,20.03
2018-12-29T21:12:44.737Z,26.47
2018-12-29T21:17:51.907Z,20.33
2018-12-29T21:23:00.090Z,21.00
2018-12-29T21:28:08.181Z,33.50
2018-12-29T21:33:15.267Z,31.25
2018-12-29T21:38:22.460Z,38.37
2018-12-29T21:43:29.750Z,74.23
2018-12-29T21:48:36.798Z,51.20
2018-12-29T21:53:43.961Z,64.43
2018-12-29T21:58:51.423Z,61.20
2018-12-29T22:03:58.700Z,43.83
2018-12-29T22:09:07.950Z,76.03
2018-12-29T22:14:15.358Z,31.82
2018-12-29T22:19:23.230Z,36.50
2018-12-29T22:24:31.921Z,70.13
2018-12-29T22:29:39.332Z,38.83
2018-12-29T22:34:46.421Z,32.77
2018-12-29T22:39:55.045Z,32.20
2018-12-29T22:45:02.116Z,27.70
2018-12-29T22:50:09.517Z,21.87
2018-12-29T22:55:16.676Z,26.03
2018-12-29T23:00:49.779Z,30.87
2018-12-29T23:05:57.136Z,24.67
2018-12-29T23:11:05.990Z,23.03
2018-12-29T23:16:13.061Z,21.57
2018-12-29T23:21:21.621Z,21.50
2018-12-29T23:26:28.683Z,22.63
2018-12-29T23:31:35.871Z,29.90
2018-12-29T23:36:43.244Z,25.47
2018-12-29T23:41:50.623Z,20.27
2018-12-29T23:46:58.174Z,20.30
2018-12-29T23:52:05.871Z,24.97
2018-12-29T23:57:12.969Z,65.53
